sensor_id;sensor_type;location;lat;lon;timestamp;P1;durP1;ratioP1;P2;durP2;ratioP2
31087;SDS011;17745;55.914;37.554;2023-05-08T00:02:21;19.25;;;6.20;;
31087;SDS011;17745;55.914;37.554;2023-05-08T00:04:51;14.65;;;6.60;;
31087;SDS011;17745;55.914;37.554;2023-05-08T00:07:19;11.18;;;6.20;;
31087;SDS011;17745;55.914;37.554;2023-05-08T00:09:46;12.60;;;7.28;;
31087;SDS011;17745;55.914;37.554;2023-05-08T00:12:16;15.35;;;7.62;;
31087;SDS011;17745;55.914;37.554;2023-05-08T00:14:43;17.62;;;7.40;;
31087;SDS011;17745;55.914;37.554;2023-05-08T00:17:11;14.55;;;7.57;;
31087;SDS011;17745;55.914;37.554;2023-05-08T00:19:39;14.05;;;7.43;;
31087;SDS011;17745;55.914;37.554;2023-05-08T00:22:08;19.23;;;7.68;;
31087;SDS011;17745;55.914;37.554;2023-05-08T00:24:36;19.75;;;7.62;;
31087;SDS011;17745;55.914;37.554;2023-05-08T00:27:04;17.00;;;7.70;;
31087;SDS011;17745;55.914;37.554;2023-05-08T00:29:32;19.77;;;8.27;;
31087;SDS011;17745;55.914;37.554;2023-05-08T00:32:00;17.92;;;8.35;;
31087;SDS011;17745;55.914;37.554;2023-05-08T00:34:28;16.42;;;7.07;;
31087;SDS011;17745;55.914;37.554;2023-05-08T00:36:56;13.77;;;7.72;;
31087;SDS011;17745;55.914;37.554;2023-05-08T00:39:25;18.45;;;7.60;;
31087;SDS011;17745;55.914;37.554;2023-05-08T00:41:53;21.12;;;7.60;;
31087;SDS011;17745;55.914;37.554;2023-05-08T00:44:21;18.42;;;8.07;;
31087;SDS011;17745;55.914;37.554;2023-05-08T00:46:49;12.50;;;7.35;;
31087;SDS011;17745;55.914;37.554;2023-05-08T00:49:17;20.50;;;7.82;;
31087;SDS011;17745;55.914;37.554;2023-05-08T00:51:46;14.13;;;7.05;;
31087;SDS011;17745;55.914;37.554;2023-05-08T00:54:16;15.45;;;7.50;;
31087;SDS011;17745;55.914;37.554;2023-05-08T00:56:48;11.48;;;6.82;;
31087;SDS011;17745;55.914;37.554;2023-05-08T00:59:19;11.88;;;7.40;;
31087;SDS011;17745;55.914;37.554;2023-05-08T01:01:47;12.55;;;7.22;;
31087;SDS011;17745;55.914;37.554;2023-05-08T01:04:17;12.13;;;7.03;;
31087;SDS011;17745;55.914;37.554;2023-05-08T01:06:48;17.12;;;8.68;;
31087;SDS011;17745;55.914;37.554;2023-05-08T01:09:16;13.10;;;7.35;;
31087;SDS011;17745;55.914;37.554;2023-05-08T01:11:45;10.32;;;6.18;;
31087;SDS011;17745;55.914;37.554;2023-05-08T01:14:19;20.02;;;9.00;;
31087;SDS011;17745;55.914;37.554;2023-05-08T01:16:50;14.18;;;7.20;;
31087;SDS011;17745;55.914;37.554;2023-05-08T01:22:43;11.82;;;7.47;;
31087;SDS011;17745;55.914;37.554;2023-05-08T01:28:35;17.75;;;7.68;;
31087;SDS011;17745;55.914;37.554;2023-05-08T01:31:16;12.77;;;7.55;;
31087;SDS011;17745;55.914;37.554;2023-05-08T01:33:57;16.20;;;7.75;;
31087;SDS011;17745;55.914;37.554;2023-05-08T01:36:32;16.45;;;7.50;;
31087;SDS011;17745;55.914;37.554;2023-05-08T01:39:08;13.90;;;6.87;;
31087;SDS011;17745;55.914;37.554;2023-05-08T01:41:43;17.67;;;7.50;;
31087;SDS011;17745;55.914;37.554;2023-05-08T01:44:18;15.55;;;7.87;;
31087;SDS011;17745;55.914;37.554;2023-05-08T01:46:49;16.05;;;8.15;;
31087;SDS011;17745;55.914;37.554;2023-05-08T01:49:22;15.35;;;8.77;;
31087;SDS011;17745;55.914;37.554;2023-05-08T01:51:55;13.48;;;8.00;;
31087;SDS011;17745;55.914;37.554;2023-05-08T01:54:27;15.15;;;6.75;;
31087;SDS011;17745;55.914;37.554;2023-05-08T01:57:06;15.73;;;7.22;;
31087;SDS011;17745;55.914;37.554;2023-05-08T01:59:36;14.43;;;8.20;;
31087;SDS011;17745;55.914;37.554;2023-05-08T02:02:08;15.00;;;7.03;;
31087;SDS011;17745;55.914;37.554;2023-05-08T02:04:39;11.43;;;7.50;;
31087;SDS011;17745;55.914;37.554;2023-05-08T02:07:09;10.75;;;6.68;;
31087;SDS011;17745;55.914;37.554;2023-05-08T02:09:37;13.95;;;7.45;;
31087;SDS011;17745;55.914;37.554;2023-05-08T02:12:08;15.95;;;8.13;;
31087;SDS011;17745;55.914;37.554;2023-05-08T02:14:39;13.40;;;7.82;;
31087;SDS011;17745;55.914;37.554;2023-05-08T02:17:08;15.13;;;6.80;;
31087;SDS011;17745;55.914;37.554;2023-05-08T02:19:39;15.05;;;6.93;;
31087;SDS011;17745;55.914;37.554;2023-05-08T02:22:09;16.25;;;8.02;;
31087;SDS011;17745;55.914;37.554;2023-05-08T02:24:38;12.23;;;6.60;;
31087;SDS011;17745;55.914;37.554;2023-05-08T02:27:07;11.77;;;7.65;;
31087;SDS011;17745;55.914;37.554;2023-05-08T02:29:36;13.82;;;7.82;;
31087;SDS011;17745;55.914;37.554;2023-05-08T02:32:06;12.65;;;8.45;;
31087;SDS011;17745;55.914;37.554;2023-05-08T02:34:34;17.58;;;8.45;;
31087;SDS011;17745;55.914;37.554;2023-05-08T02:37:04;14.77;;;8.63;;
31087;SDS011;17745;55.914;37.554;2023-05-08T02:39:33;14.95;;;7.12;;
31087;SDS011;17745;55.914;37.554;2023-05-08T02:42:04;12.55;;;7.95;;
31087;SDS011;17745;55.914;37.554;2023-05-08T02:44:31;12.68;;;8.55;;
31087;SDS011;17745;55.914;37.554;2023-05-08T02:47:03;15.18;;;8.20;;
31087;SDS011;17745;55.914;37.554;2023-05-08T02:49:42;12.50;;;8.02;;
31087;SDS011;17745;55.914;37.554;2023-05-08T02:52:18;11.30;;;6.93;;
31087;SDS011;17745;55.914;37.554;2023-05-08T02:54:55;15.25;;;8.63;;
31087;SDS011;17745;55.914;37.554;2023-05-08T02:57:29;17.95;;;8.73;;
31087;SDS011;17745;55.914;37.554;2023-05-08T03:00:03;14.87;;;8.95;;
31087;SDS011;17745;55.914;37.554;2023-05-08T03:02:41;16.45;;;9.25;;
31087;SDS011;17745;55.914;37.554;2023-05-08T03:05:16;14.82;;;8.27;;
31087;SDS011;17745;55.914;37.554;2023-05-08T03:07:48;13.13;;;7.68;;
31087;SDS011;17745;55.914;37.554;2023-05-08T03:10:30;18.80;;;9.40;;
31087;SDS011;17745;55.914;37.554;2023-05-08T03:13:01;16.40;;;9.20;;
31087;SDS011;17745;55.914;37.554;2023-05-08T03:15:32;14.10;;;7.53;;
31087;SDS011;17745;55.914;37.554;2023-05-08T03:18:05;14.63;;;7.70;;
31087;SDS011;17745;55.914;37.554;2023-05-08T03:20:36;16.92;;;8.50;;
31087;SDS011;17745;55.914;37.554;2023-05-08T03:23:08;14.13;;;8.40;;
31087;SDS011;17745;55.914;37.554;2023-05-08T03:25:40;14.40;;;8.02;;
31087;SDS011;17745;55.914;37.554;2023-05-08T03:28:09;13.68;;;7.15;;
31087;SDS011;17745;55.914;37.554;2023-05-08T03:30:41;12.57;;;8.02;;
31087;SDS011;17745;55.914;37.554;2023-05-08T03:33:10;13.18;;;8.48;;
31087;SDS011;17745;55.914;37.554;2023-05-08T03:35:39;12.15;;;7.68;;
31087;SDS011;17745;55.914;37.554;2023-05-08T03:38:09;14.18;;;7.55;;
31087;SDS011;17745;55.914;37.554;2023-05-08T03:40:38;12.52;;;6.90;;
31087;SDS011;17745;55.914;37.554;2023-05-08T03:43:08;18.52;;;7.85;;
31087;SDS011;17745;55.914;37.554;2023-05-08T03:45:37;11.82;;;6.32;;
31087;SDS011;17745;55.914;37.554;2023-05-08T03:48:07;10.95;;;7.07;;
31087;SDS011;17745;55.914;37.554;2023-05-08T03:50:36;12.50;;;6.65;;
31087;SDS011;17745;55.914;37.554;2023-05-08T03:53:06;16.95;;;6.35;;
31087;SDS011;17745;55.914;37.554;2023-05-08T03:55:35;9.07;;;6.28;;
31087;SDS011;17745;55.914;37.554;2023-05-08T03:58:07;11.00;;;6.60;;
31087;SDS011;17745;55.914;37.554;2023-05-08T04:00:44;10.88;;;5.60;;
31087;SDS011;17745;55.914;37.554;2023-05-08T04:03:24;16.80;;;5.50;;
31087;SDS011;17745;55.914;37.554;2023-05-08T04:06:00;10.98;;;6.05;;
31087;SDS011;17745;55.914;37.554;2023-05-08T04:08:38;11.07;;;5.22;;
31087;SDS011;17745;55.914;37.554;2023-05-08T04:11:12;15.25;;;5.75;;
31087;SDS011;17745;55.914;37.554;2023-05-08T04:13:47;15.77;;;5.65;;
31087;SDS011;17745;55.914;37.554;2023-05-08T04:16:20;13.90;;;6.57;;
31087;SDS011;17745;55.914;37.554;2023-05-08T04:18:54;9.20;;;4.87;;
31087;SDS011;17745;55.914;37.554;2023-05-08T04:21:28;9.70;;;5.95;;
31087;SDS011;17745;55.914;37.554;2023-05-08T04:24:02;9.57;;;5.22;;
31087;SDS011;17745;55.914;37.554;2023-05-08T04:26:36;12.05;;;5.72;;
31087;SDS011;17745;55.914;37.554;2023-05-08T04:29:06;7.68;;;4.30;;
31087;SDS011;17745;55.914;37.554;2023-05-08T04:31:35;8.77;;;4.22;;
31087;SDS011;17745;55.914;37.554;2023-05-08T04:34:06;9.77;;;4.37;;
31087;SDS011;17745;55.914;37.554;2023-05-08T04:36:35;9.32;;;3.97;;
31087;SDS011;17745;55.914;37.554;2023-05-08T04:39:04;6.72;;;3.72;;
31087;SDS011;17745;55.914;37.554;2023-05-08T04:41:32;7.32;;;3.62;;
31087;SDS011;17745;55.914;37.554;2023-05-08T04:44:03;8.77;;;3.95;;
31087;SDS011;17745;55.914;37.554;2023-05-08T04:46:31;6.30;;;3.33;;
31087;SDS011;17745;55.914;37.554;2023-05-08T04:49:05;7.95;;;3.25;;
31087;SDS011;17745;55.914;37.554;2023-05-08T04:51:36;7.03;;;3.30;;
31087;SDS011;17745;55.914;37.554;2023-05-08T04:54:05;4.55;;;2.80;;
31087;SDS011;17745;55.914;37.554;2023-05-08T04:56:36;7.25;;;3.60;;
31087;SDS011;17745;55.914;37.554;2023-05-08T04:59:09;5.57;;;3.03;;
31087;SDS011;17745;55.914;37.554;2023-05-08T05:01:37;8.57;;;3.75;;
31087;SDS011;17745;55.914;37.554;2023-05-08T05:04:05;4.78;;;2.80;;
31087;SDS011;17745;55.914;37.554;2023-05-08T05:06:38;5.35;;;2.97;;
31087;SDS011;17745;55.914;37.554;2023-05-08T05:09:05;4.97;;;2.87;;
31087;SDS011;17745;55.914;37.554;2023-05-08T05:11:33;6.32;;;3.03;;
31087;SDS011;17745;55.914;37.554;2023-05-08T05:14:04;6.25;;;3.28;;
31087;SDS011;17745;55.914;37.554;2023-05-08T05:16:34;5.85;;;3.25;;
31087;SDS011;17745;55.914;37.554;2023-05-08T05:19:03;6.85;;;2.83;;
31087;SDS011;17745;55.914;37.554;2023-05-08T05:21:34;3.37;;;2.20;;
31087;SDS011;17745;55.914;37.554;2023-05-08T05:24:07;4.20;;;2.30;;
31087;SDS011;17745;55.914;37.554;2023-05-08T05:26:35;3.35;;;2.17;;
31087;SDS011;17745;55.914;37.554;2023-05-08T05:29:04;2.40;;;1.67;;
31087;SDS011;17745;55.914;37.554;2023-05-08T05:31:31;3.60;;;1.60;;
31087;SDS011;17745;55.914;37.554;2023-05-08T05:34:01;2.80;;;1.62;;
31087;SDS011;17745;55.914;37.554;2023-05-08T05:36:29;6.90;;;2.37;;
31087;SDS011;17745;55.914;37.554;2023-05-08T05:38:56;4.32;;;1.80;;
31087;SDS011;17745;55.914;37.554;2023-05-08T05:41:24;4.25;;;2.00;;
31087;SDS011;17745;55.914;37.554;2023-05-08T05:43:53;3.17;;;2.00;;
31087;SDS011;17745;55.914;37.554;2023-05-08T05:46:21;3.78;;;1.75;;
31087;SDS011;17745;55.914;37.554;2023-05-08T05:48:54;2.60;;;1.60;;
31087;SDS011;17745;55.914;37.554;2023-05-08T05:51:22;2.10;;;1.60;;
31087;SDS011;17745;55.914;37.554;2023-05-08T05:53:54;3.00;;;1.62;;
31087;SDS011;17745;55.914;37.554;2023-05-08T05:56:24;3.40;;;1.60;;
31087;SDS011;17745;55.914;37.554;2023-05-08T05:59:01;2.75;;;1.65;;
31087;SDS011;17745;55.914;37.554;2023-05-08T06:01:29;2.87;;;2.00;;
31087;SDS011;17745;55.914;37.554;2023-05-08T06:04:00;4.15;;;2.00;;
31087;SDS011;17745;55.914;37.554;2023-05-08T06:06:27;2.58;;;1.70;;
31087;SDS011;17745;55.914;37.554;2023-05-08T06:08:56;3.60;;;2.00;;
31087;SDS011;17745;55.914;37.554;2023-05-08T06:11:25;1.55;;;1.40;;
31087;SDS011;17745;55.914;37.554;2023-05-08T06:13:53;4.45;;;1.77;;
31087;SDS011;17745;55.914;37.554;2023-05-08T06:16:21;7.22;;;1.70;;
31087;SDS011;17745;55.914;37.554;2023-05-08T06:18:55;2.67;;;1.67;;
31087;SDS011;17745;55.914;37.554;2023-05-08T06:21:25;2.70;;;1.75;;
31087;SDS011;17745;55.914;37.554;2023-05-08T06:23:53;2.00;;;1.60;;
31087;SDS011;17745;55.914;37.554;2023-05-08T06:26:21;1.92;;;1.48;;
31087;SDS011;17745;55.914;37.554;2023-05-08T06:28:51;2.60;;;1.52;;
31087;SDS011;17745;55.914;37.554;2023-05-08T06:31:24;2.30;;;1.50;;
31087;SDS011;17745;55.914;37.554;2023-05-08T06:33:52;3.75;;;2.60;;
31087;SDS011;17745;55.914;37.554;2023-05-08T06:36:32;3.12;;;1.60;;
31087;SDS011;17745;55.914;37.554;2023-05-08T06:39:02;2.37;;;1.60;;
31087;SDS011;17745;55.914;37.554;2023-05-08T06:41:33;2.95;;;1.60;;
31087;SDS011;17745;55.914;37.554;2023-05-08T06:44:04;2.58;;;1.50;;
31087;SDS011;17745;55.914;37.554;2023-05-08T06:46:34;2.45;;;1.60;;
31087;SDS011;17745;55.914;37.554;2023-05-08T06:49:05;3.85;;;1.50;;
31087;SDS011;17745;55.914;37.554;2023-05-08T06:51:42;2.87;;;1.60;;
31087;SDS011;17745;55.914;37.554;2023-05-08T06:54:09;3.58;;;1.70;;
31087;SDS011;17745;55.914;37.554;2023-05-08T06:56:38;2.58;;;1.80;;
31087;SDS011;17745;55.914;37.554;2023-05-08T06:59:06;1.62;;;1.40;;
31087;SDS011;17745;55.914;37.554;2023-05-08T07:01:42;2.05;;;1.50;;
31087;SDS011;17745;55.914;37.554;2023-05-08T07:04:37;2.95;;;1.50;;
31087;SDS011;17745;55.914;37.554;2023-05-08T07:07:07;2.85;;;1.55;;
31087;SDS011;17745;55.914;37.554;2023-05-08T07:12:23;2.58;;;1.52;;
31087;SDS011;17745;55.914;37.554;2023-05-08T07:14:52;4.37;;;1.77;;
31087;SDS011;17745;55.914;37.554;2023-05-08T07:17:20;2.87;;;1.40;;
31087;SDS011;17745;55.914;37.554;2023-05-08T07:19:49;1.80;;;1.40;;
31087;SDS011;17745;55.914;37.554;2023-05-08T07:22:22;1.65;;;1.40;;
31087;SDS011;17745;55.914;37.554;2023-05-08T07:24:50;3.50;;;1.58;;
31087;SDS011;17745;55.914;37.554;2023-05-08T07:27:21;1.45;;;1.30;;
31087;SDS011;17745;55.914;37.554;2023-05-08T07:30:07;1.60;;;1.40;;
31087;SDS011;17745;55.914;37.554;2023-05-08T07:32:37;4.05;;;2.00;;
31087;SDS011;17745;55.914;37.554;2023-05-08T07:35:09;2.90;;;1.70;;
31087;SDS011;17745;55.914;37.554;2023-05-08T07:47:49;1.98;;;1.30;;
31087;SDS011;17745;55.914;37.554;2023-05-08T07:50:49;1.62;;;1.30;;
31087;SDS011;17745;55.914;37.554;2023-05-08T07:56:17;4.15;;;1.50;;
31087;SDS011;17745;55.914;37.554;2023-05-08T07:58:48;2.75;;;1.50;;
31087;SDS011;17745;55.914;37.554;2023-05-08T08:01:41;3.15;;;1.30;;
31087;SDS011;17745;55.914;37.554;2023-05-08T08:04:31;1.83;;;1.30;;
31087;SDS011;17745;55.914;37.554;2023-05-08T08:07:06;2.62;;;1.37;;
31087;SDS011;17745;55.914;37.554;2023-05-08T08:09:38;3.17;;;1.40;;
31087;SDS011;17745;55.914;37.554;2023-05-08T08:12:30;2.60;;;1.45;;
31087;SDS011;17745;55.914;37.554;2023-05-08T08:15:17;2.40;;;1.50;;
31087;SDS011;17745;55.914;37.554;2023-05-08T08:17:54;3.15;;;1.67;;
31087;SDS011;17745;55.914;37.554;2023-05-08T08:20:33;1.85;;;1.30;;
31087;SDS011;17745;55.914;37.554;2023-05-08T08:23:10;1.92;;;1.40;;
31087;SDS011;17745;55.914;37.554;2023-05-08T08:25:43;1.73;;;1.20;;
31087;SDS011;17745;55.914;37.554;2023-05-08T08:28:16;3.42;;;1.30;;
31087;SDS011;17745;55.914;37.554;2023-05-08T08:30:51;2.67;;;1.80;;
31087;SDS011;17745;55.914;37.554;2023-05-08T08:33:26;2.33;;;1.37;;
31087;SDS011;17745;55.914;37.554;2023-05-08T08:35:58;1.83;;;1.25;;
31087;SDS011;17745;55.914;37.554;2023-05-08T08:38:28;1.75;;;1.25;;
31087;SDS011;17745;55.914;37.554;2023-05-08T08:43:50;3.70;;;1.70;;
31087;SDS011;17745;55.914;37.554;2023-05-08T08:46:19;3.72;;;1.80;;
31087;SDS011;17745;55.914;37.554;2023-05-08T08:52:14;10.82;;;2.00;;
31087;SDS011;17745;55.914;37.554;2023-05-08T08:55:03;2.53;;;1.52;;
31087;SDS011;17745;55.914;37.554;2023-05-08T09:00:13;3.72;;;1.90;;
31087;SDS011;17745;55.914;37.554;2023-05-08T09:02:46;2.72;;;1.50;;
31087;SDS011;17745;55.914;37.554;2023-05-08T09:08:15;3.50;;;1.75;;
31087;SDS011;17745;55.914;37.554;2023-05-08T09:10:53;2.85;;;1.60;;
31087;SDS011;17745;55.914;37.554;2023-05-08T09:13:29;6.00;;;2.55;;
31087;SDS011;17745;55.914;37.554;2023-05-08T09:16:01;6.55;;;2.20;;
31087;SDS011;17745;55.914;37.554;2023-05-08T09:18:36;3.92;;;1.70;;
31087;SDS011;17745;55.914;37.554;2023-05-08T09:21:07;6.47;;;1.80;;
31087;SDS011;17745;55.914;37.554;2023-05-08T09:26:29;2.05;;;1.45;;
31087;SDS011;17745;55.914;37.554;2023-05-08T09:29:08;3.70;;;1.45;;
31087;SDS011;17745;55.914;37.554;2023-05-08T09:31:44;5.20;;;1.85;;
31087;SDS011;17745;55.914;37.554;2023-05-08T09:34:51;4.95;;;1.62;;
31087;SDS011;17745;55.914;37.554;2023-05-08T09:41:37;2.47;;;1.40;;
31087;SDS011;17745;55.914;37.554;2023-05-08T09:44:06;2.28;;;1.60;;
31087;SDS011;17745;55.914;37.554;2023-05-08T09:52:45;2.28;;;1.20;;
31087;SDS011;17745;55.914;37.554;2023-05-08T09:55:18;2.78;;;1.40;;
31087;SDS011;17745;55.914;37.554;2023-05-08T09:58:03;3.05;;;1.50;;
31087;SDS011;17745;55.914;37.554;2023-05-08T10:00:34;2.40;;;1.52;;
31087;SDS011;17745;55.914;37.554;2023-05-08T10:03:14;3.55;;;1.75;;
31087;SDS011;17745;55.914;37.554;2023-05-08T10:05:44;2.85;;;1.73;;
31087;SDS011;17745;55.914;37.554;2023-05-08T10:08:17;3.40;;;1.70;;
31087;SDS011;17745;55.914;37.554;2023-05-08T10:10:48;3.35;;;1.75;;
31087;SDS011;17745;55.914;37.554;2023-05-08T10:13:24;5.47;;;1.58;;
31087;SDS011;17745;55.914;37.554;2023-05-08T10:15:53;3.78;;;1.60;;
31087;SDS011;17745;55.914;37.554;2023-05-08T10:18:27;3.17;;;1.60;;
31087;SDS011;17745;55.914;37.554;2023-05-08T10:21:04;2.47;;;1.40;;
31087;SDS011;17745;55.914;37.554;2023-05-08T10:23:48;4.50;;;1.77;;
31087;SDS011;17745;55.914;37.554;2023-05-08T10:27:03;2.67;;;1.50;;
31087;SDS011;17745;55.914;37.554;2023-05-08T10:29:55;4.35;;;1.80;;
31087;SDS011;17745;55.914;37.554;2023-05-08T10:39:08;5.72;;;1.80;;
31087;SDS011;17745;55.914;37.554;2023-05-08T10:42:14;1.67;;;1.30;;
31087;SDS011;17745;55.914;37.554;2023-05-08T10:44:46;3.50;;;1.50;;
31087;SDS011;17745;55.914;37.554;2023-05-08T10:47:20;3.60;;;1.60;;
31087;SDS011;17745;55.914;37.554;2023-05-08T10:49:56;2.62;;;1.65;;
31087;SDS011;17745;55.914;37.554;2023-05-08T10:52:37;3.30;;;1.75;;
31087;SDS011;17745;55.914;37.554;2023-05-08T10:55:22;3.40;;;1.67;;
31087;SDS011;17745;55.914;37.554;2023-05-08T10:58:28;2.37;;;1.85;;
31087;SDS011;17745;55.914;37.554;2023-05-08T11:01:10;5.00;;;1.70;;
31087;SDS011;17745;55.914;37.554;2023-05-08T11:22:49;4.28;;;1.77;;
31087;SDS011;17745;55.914;37.554;2023-05-08T11:25:20;4.65;;;1.87;;
31087;SDS011;17745;55.914;37.554;2023-05-08T11:28:15;4.32;;;1.90;;
31087;SDS011;17745;55.914;37.554;2023-05-08T11:30:51;3.15;;;1.75;;
31087;SDS011;17745;55.914;37.554;2023-05-08T11:33:34;3.67;;;2.37;;
31087;SDS011;17745;55.914;37.554;2023-05-08T11:36:14;3.55;;;1.98;;
31087;SDS011;17745;55.914;37.554;2023-05-08T11:45:06;4.75;;;1.70;;
31087;SDS011;17745;55.914;37.554;2023-05-08T11:47:48;6.68;;;1.90;;
31087;SDS011;17745;55.914;37.554;2023-05-08T11:53:27;5.35;;;2.05;;
31087;SDS011;17745;55.914;37.554;2023-05-08T11:59:43;4.65;;;1.70;;
31087;SDS011;17745;55.914;37.554;2023-05-08T12:02:18;2.62;;;1.62;;
31087;SDS011;17745;55.914;37.554;2023-05-08T12:05:06;3.55;;;1.98;;
31087;SDS011;17745;55.914;37.554;2023-05-08T12:07:41;5.12;;;2.15;;
31087;SDS011;17745;55.914;37.554;2023-05-08T12:10:14;3.67;;;2.10;;
31087;SDS011;17745;55.914;37.554;2023-05-08T12:12:47;6.70;;;2.30;;
31087;SDS011;17745;55.914;37.554;2023-05-08T12:18:08;4.53;;;2.17;;
31087;SDS011;17745;55.914;37.554;2023-05-08T12:20:49;4.65;;;2.05;;
31087;SDS011;17745;55.914;37.554;2023-05-08T12:23:31;6.75;;;1.90;;
31087;SDS011;17745;55.914;37.554;2023-05-08T12:26:09;4.47;;;2.05;;
31087;SDS011;17745;55.914;37.554;2023-05-08T12:28:54;4.20;;;1.87;;
31087;SDS011;17745;55.914;37.554;2023-05-08T12:37:33;4.20;;;1.98;;
31087;SDS011;17745;55.914;37.554;2023-05-08T12:40:04;5.05;;;2.20;;
31087;SDS011;17745;55.914;37.554;2023-05-08T12:42:54;4.90;;;2.35;;
31087;SDS011;17745;55.914;37.554;2023-05-08T12:45:24;3.95;;;2.22;;
31087;SDS011;17745;55.914;37.554;2023-05-08T12:48:06;6.70;;;2.55;;
31087;SDS011;17745;55.914;37.554;2023-05-08T12:50:47;3.72;;;2.03;;
31087;SDS011;17745;55.914;37.554;2023-05-08T12:53:28;6.97;;;2.20;;
31087;SDS011;17745;55.914;37.554;2023-05-08T12:56:05;4.37;;;2.20;;
31087;SDS011;17745;55.914;37.554;2023-05-08T12:58:44;6.20;;;2.40;;
31087;SDS011;17745;55.914;37.554;2023-05-08T13:01:22;4.37;;;2.05;;
31087;SDS011;17745;55.914;37.554;2023-05-08T13:03:54;8.25;;;2.20;;
31087;SDS011;17745;55.914;37.554;2023-05-08T13:06:34;4.30;;;2.20;;
31087;SDS011;17745;55.914;37.554;2023-05-08T13:09:10;3.42;;;1.90;;
31087;SDS011;17745;55.914;37.554;2023-05-08T13:11:49;4.60;;;1.85;;
31087;SDS011;17745;55.914;37.554;2023-05-08T13:14:40;5.12;;;2.17;;
31087;SDS011;17745;55.914;37.554;2023-05-08T13:17:36;4.85;;;2.03;;
31087;SDS011;17745;55.914;37.554;2023-05-08T13:56:23;7.62;;;2.60;;
31087;SDS011;17745;55.914;37.554;2023-05-08T13:59:00;6.97;;;1.98;;
31087;SDS011;17745;55.914;37.554;2023-05-08T14:02:16;5.40;;;1.85;;
31087;SDS011;17745;55.914;37.554;2023-05-08T14:04:49;4.72;;;2.00;;
31087;SDS011;17745;55.914;37.554;2023-05-08T14:07:35;5.25;;;2.08;;
31087;SDS011;17745;55.914;37.554;2023-05-08T14:10:47;3.53;;;2.12;;
31087;SDS011;17745;55.914;37.554;2023-05-08T14:16:24;4.25;;;2.10;;
31087;SDS011;17745;55.914;37.554;2023-05-08T14:19:02;7.28;;;2.97;;
31087;SDS011;17745;55.914;37.554;2023-05-08T14:21:36;5.60;;;1.75;;
31087;SDS011;17745;55.914;37.554;2023-05-08T14:24:12;5.57;;;2.20;;
31087;SDS011;17745;55.914;37.554;2023-05-08T14:26:44;3.47;;;1.80;;
31087;SDS011;17745;55.914;37.554;2023-05-08T14:29:22;4.87;;;2.10;;
31087;SDS011;17745;55.914;37.554;2023-05-08T14:31:51;4.82;;;1.73;;
31087;SDS011;17745;55.914;37.554;2023-05-08T14:34:26;10.25;;;1.87;;
31087;SDS011;17745;55.914;37.554;2023-05-08T14:36:55;4.05;;;1.70;;
31087;SDS011;17745;55.914;37.554;2023-05-08T14:39:43;2.58;;;1.70;;
31087;SDS011;17745;55.914;37.554;2023-05-08T14:42:12;3.62;;;1.52;;
31087;SDS011;17745;55.914;37.554;2023-05-08T14:44:44;3.33;;;1.70;;
31087;SDS011;17745;55.914;37.554;2023-05-08T14:47:17;8.32;;;2.47;;
31087;SDS011;17745;55.914;37.554;2023-05-08T14:49:49;6.65;;;2.22;;
31087;SDS011;17745;55.914;37.554;2023-05-08T14:52:24;4.65;;;2.10;;
31087;SDS011;17745;55.914;37.554;2023-05-08T14:55:00;4.22;;;1.87;;
31087;SDS011;17745;55.914;37.554;2023-05-08T14:57:37;4.20;;;2.05;;
31087;SDS011;17745;55.914;37.554;2023-05-08T15:00:13;7.35;;;1.95;;
31087;SDS011;17745;55.914;37.554;2023-05-08T15:02:56;4.05;;;2.10;;
31087;SDS011;17745;55.914;37.554;2023-05-08T15:05:45;5.28;;;2.20;;
31087;SDS011;17745;55.914;37.554;2023-05-08T15:08:22;3.72;;;2.00;;
31087;SDS011;17745;55.914;37.554;2023-05-08T15:10:56;5.80;;;2.25;;
31087;SDS011;17745;55.914;37.554;2023-05-08T15:13:46;6.50;;;2.17;;
31087;SDS011;17745;55.914;37.554;2023-05-08T15:19:48;3.17;;;1.90;;
31087;SDS011;17745;55.914;37.554;2023-05-08T15:23:00;5.30;;;2.10;;
31087;SDS011;17745;55.914;37.554;2023-05-08T15:25:39;8.52;;;2.28;;
31087;SDS011;17745;55.914;37.554;2023-05-08T15:28:21;6.03;;;2.05;;
31087;SDS011;17745;55.914;37.554;2023-05-08T15:30:54;4.53;;;2.28;;
31087;SDS011;17745;55.914;37.554;2023-05-08T15:33:42;5.85;;;2.37;;
31087;SDS011;17745;55.914;37.554;2023-05-08T15:36:16;5.03;;;2.17;;
31087;SDS011;17745;55.914;37.554;2023-05-08T15:38:52;8.15;;;2.40;;
31087;SDS011;17745;55.914;37.554;2023-05-08T15:41:28;4.40;;;1.98;;
31087;SDS011;17745;55.914;37.554;2023-05-08T15:44:10;4.55;;;2.10;;
31087;SDS011;17745;55.914;37.554;2023-05-08T15:47:12;5.87;;;1.90;;
31087;SDS011;17745;55.914;37.554;2023-05-08T15:49:58;5.80;;;2.12;;
31087;SDS011;17745;55.914;37.554;2023-05-08T15:52:33;3.53;;;1.90;;
31087;SDS011;17745;55.914;37.554;2023-05-08T15:55:05;5.55;;;2.40;;
31087;SDS011;17745;55.914;37.554;2023-05-08T15:57:47;2.83;;;1.80;;
31087;SDS011;17745;55.914;37.554;2023-05-08T16:00:36;6.82;;;2.25;;
31087;SDS011;17745;55.914;37.554;2023-05-08T16:03:10;4.57;;;2.60;;
31087;SDS011;17745;55.914;37.554;2023-05-08T16:09:24;5.68;;;2.65;;
31087;SDS011;17745;55.914;37.554;2023-05-08T16:12:23;3.65;;;2.03;;
31087;SDS011;17745;55.914;37.554;2023-05-08T16:15:09;7.18;;;2.20;;
31087;SDS011;17745;55.914;37.554;2023-05-08T16:17:49;6.03;;;2.72;;
31087;SDS011;17745;55.914;37.554;2023-05-08T16:20:22;6.55;;;2.72;;
31087;SDS011;17745;55.914;37.554;2023-05-08T16:23:02;5.68;;;2.40;;
31087;SDS011;17745;55.914;37.554;2023-05-08T16:25:35;5.55;;;3.17;;
31087;SDS011;17745;55.914;37.554;2023-05-08T16:28:09;5.55;;;1.80;;
31087;SDS011;17745;55.914;37.554;2023-05-08T16:30:38;7.57;;;2.12;;
31087;SDS011;17745;55.914;37.554;2023-05-08T16:33:10;4.85;;;2.22;;
31087;SDS011;17745;55.914;37.554;2023-05-08T16:35:49;6.78;;;2.30;;
31087;SDS011;17745;55.914;37.554;2023-05-08T16:38:23;5.60;;;2.30;;
31087;SDS011;17745;55.914;37.554;2023-05-08T16:41:06;6.30;;;2.42;;
31087;SDS011;17745;55.914;37.554;2023-05-08T16:43:36;5.85;;;2.97;;
31087;SDS011;17745;55.914;37.554;2023-05-08T16:46:14;5.72;;;2.60;;
31087;SDS011;17745;55.914;37.554;2023-05-08T16:48:44;4.80;;;2.40;;
31087;SDS011;17745;55.914;37.554;2023-05-08T16:51:14;5.30;;;2.22;;
31087;SDS011;17745;55.914;37.554;2023-05-08T16:53:44;8.50;;;2.70;;
31087;SDS011;17745;55.914;37.554;2023-05-08T16:56:15;8.13;;;3.00;;
31087;SDS011;17745;55.914;37.554;2023-05-08T16:58:49;6.57;;;2.87;;
31087;SDS011;17745;55.914;37.554;2023-05-08T17:01:32;9.57;;;2.92;;
31087;SDS011;17745;55.914;37.554;2023-05-08T17:04:16;8.55;;;3.33;;
31087;SDS011;17745;55.914;37.554;2023-05-08T17:07:12;7.30;;;3.00;;
31087;SDS011;17745;55.914;37.554;2023-05-08T17:09:58;5.03;;;3.37;;
31087;SDS011;17745;55.914;37.554;2023-05-08T17:12:51;6.07;;;3.00;;
31087;SDS011;17745;55.914;37.554;2023-05-08T17:15:45;7.05;;;2.85;;
31087;SDS011;17745;55.914;37.554;2023-05-08T17:18:19;5.93;;;2.92;;
31087;SDS011;17745;55.914;37.554;2023-05-08T17:26:30;6.15;;;3.15;;
31087;SDS011;17745;55.914;37.554;2023-05-08T17:29:09;5.12;;;3.08;;
31087;SDS011;17745;55.914;37.554;2023-05-08T17:31:38;8.82;;;3.20;;
31087;SDS011;17745;55.914;37.554;2023-05-08T17:34:09;6.10;;;3.15;;
31087;SDS011;17745;55.914;37.554;2023-05-08T17:36:49;8.52;;;3.70;;
31087;SDS011;17745;55.914;37.554;2023-05-08T17:39:20;9.68;;;3.53;;
31087;SDS011;17745;55.914;37.554;2023-05-08T17:48:06;10.55;;;4.15;;
31087;SDS011;17745;55.914;37.554;2023-05-08T17:50:41;8.35;;;3.00;;